Time;durP1;ratioP1;P1;durP2;ratioP2;P2;SDS_P1;SDS_P2;PMS_P1;PMS_P2;Temp;Humidity;BMP_temperature;BMP_pressure;BME280_temperature;BME280_humidity;BME280_pressure;Samples;Min_cycle;Max_cycle;Signal;HPM_P1;HPM_P2
2022/12/12 04:01:51;;;;;;;;;;;-3.40;99.90;;;;;;5514486;23;19927;-68
2022/12/12 04:04:21;;;;;;;;;;;-3.40;99.90;;;;;;4937566;29;19933;-68
2022/12/12 04:06:49;;;;;;;;;;;-3.50;99.90;;;;;;4925555;28;20022;-68
2022/12/12 04:14:58;;;;;;;;;;;-3.60;99.90;;;;;;4904035;29;19927;-68
2022/12/12 04:17:31;;;;;;;;;;;-3.70;99.90;;;;;;4910760;29;19970;-68
2022/12/12 04:26:37;;;;;;;;;;;-3.80;99.90;;;;;;4905869;29;19927;-69
2022/12/12 04:28:23;;;;;;;;;;;-3.90;99.90;;;;;;4910200;29;20021;-69
2022/12/12 04:30:49;;;;;;;;;;;-3.90;99.90;;;;;;4902893;29;19959;-68
2022/12/12 04:33:19;;;;;;;;;;;-4.00;99.90;;;;;;4911012;29;19970;-72
2022/12/12 04:35:48;;;;;;;;;;;-3.90;99.90;;;;;;4913664;29;19970;-68
2022/12/12 04:38:17;;;;;;;;;;;-3.90;99.90;;;;;;4908780;29;19962;-71
2022/12/12 04:40:45;;;;;;;;;;;-4.00;99.90;;;;;;4911147;29;19983;-68
2022/12/12 04:43:14;;;;;;;;;;;-4.00;99.90;;;;;;4913538;29;20331;-68
2022/12/12 04:45:44;;;;;;;;;;;-4.00;99.90;;;;;;4906504;29;20413;-71
2022/12/12 04:48:14;;;;;;;;;;;-3.90;99.90;;;;;;4910279;29;20402;-67
2022/12/12 04:50:44;;;;;;;;;;;-3.80;99.90;;;;;;4910763;29;19979;-70
2022/12/12 04:53:12;;;;;;;;;;;-3.90;99.90;;;;;;4907885;29;19999;-68
2022/12/12 04:55:40;;;;;;;;;;;-3.80;99.90;;;;;;4909670;29;19926;-70
2022/12/12 04:58:08;;;;;;;;;;;-3.80;99.90;;;;;;4910146;29;19934;-71
2022/12/12 05:00:38;;;;;;;;;;;-3.80;99.90;;;;;;4915184;29;19928;-68
2022/12/12 05:03:08;;;;;;;;;;;-3.90;99.90;;;;;;4909440;29;19927;-69
2022/12/12 05:05:36;;;;;;;;;;;-4.00;99.90;;;;;;4905336;29;20027;-69
2022/12/12 05:08:06;;;;;;;;;;;-4.10;99.90;;;;;;4906571;29;19927;-69
2022/12/12 05:10:33;;;;;;;;;;;-4.20;99.90;;;;;;4907873;29;19928;-69
2022/12/12 05:13:00;;;;;;;;;;;-4.30;99.90;;;;;;4912095;29;19935;-70
2022/12/12 05:15:28;;;;;;;;;;;-4.30;99.90;;;;;;4912406;29;20387;-72
2022/12/12 05:17:58;;;;;;;;;;;-4.30;99.90;;;;;;4908683;29;19966;-70
2022/12/12 05:20:25;;;;;;;;;;;-4.30;99.90;;;;;;4909205;29;20390;-72
2022/12/12 05:22:51;;;;;;;;;;;-4.40;99.90;;;;;;4912051;29;19927;-71
2022/12/12 05:25:20;;;;;;;;;;;-4.40;99.90;;;;;;4905994;29;20346;-71
2022/12/12 05:27:46;;;;;;;;;;;-4.50;99.90;;;;;;4910404;29;19927;-71
2022/12/12 05:30:13;;;;;;;;;;;-4.40;99.90;;;;;;4907263;29;20399;-72
2022/12/12 05:32:40;;;;;;;;;;;-4.40;99.90;;;;;;4907086;29;19927;-72
2022/12/12 05:35:08;;;;;;;;;;;-4.40;99.90;;;;;;4909105;29;19931;-71
2022/12/12 05:37:35;;;;;;;;;;;-4.50;99.90;;;;;;4910839;29;20398;-71
2022/12/12 05:40:02;;;;;;;;;;;-4.50;99.90;;;;;;4914833;29;19982;-71
2022/12/12 05:42:30;;;;;;;;;;;-4.50;99.90;;;;;;4909078;29;19934;-72
2022/12/12 05:44:57;;;;;;;;;;;-4.40;99.90;;;;;;4927819;29;19931;-71
2022/12/12 05:47:23;;;;;;;;;;;-4.30;99.90;;;;;;4908250;29;19928;-71
2022/12/12 05:49:50;;;;;;;;;;;-4.20;99.90;;;;;;4910320;29;19935;-71
2022/12/12 05:52:17;;;;;;;;;;;-4.20;99.90;;;;;;4917522;29;20009;-71
2022/12/12 05:54:44;;;;;;;;;;;-4.20;99.90;;;;;;4912150;29;20382;-70
2022/12/12 05:57:11;;;;;;;;;;;-4.30;99.90;;;;;;4914366;29;19927;-72
2022/12/12 05:59:39;;;;;;;;;;;-4.30;99.90;;;;;;4909512;29;20008;-71
2022/12/12 06:02:06;;;;;;;;;;;-4.40;99.90;;;;;;4907398;29;20401;-76
2022/12/12 06:04:32;;;;;;;;;;;-4.40;99.90;;;;;;4903888;29;19927;-79
2022/12/12 06:06:59;;;;;;;;;;;-4.60;99.90;;;;;;4914899;29;19927;-75
2022/12/12 06:09:26;;;;;;;;;;;-4.60;99.90;;;;;;4902461;29;20022;-74
2022/12/12 06:11:53;;;;;;;;;;;-4.70;99.90;;;;;;4907211;29;19934;-73
2022/12/12 06:14:20;;;;;;;;;;;-4.70;99.90;;;;;;4911434;29;19975;-71
2022/12/12 06:16:48;;;;;;;;;;;-4.70;99.90;;;;;;4906138;29;19935;-72
2022/12/12 06:19:15;;;;;;;;;;;-4.70;99.90;;;;;;4908578;29;19935;-72
2022/12/12 06:21:42;;;;;;;;;;;-4.70;99.90;;;;;;4913361;29;19931;-71
2022/12/12 06:24:09;;;;;;;;;;;-4.80;99.90;;;;;;4913500;29;20151;-72
2022/12/12 06:26:36;;;;;;;;;;;-4.90;99.90;;;;;;4913267;29;19927;-71
2022/12/12 06:29:03;;;;;;;;;;;-4.80;99.90;;;;;;4909576;29;19927;-71
2022/12/12 06:31:30;;;;;;;;;;;-4.90;99.90;;;;;;4908391;29;20477;-71
2022/12/12 06:33:58;;;;;;;;;;;-4.90;99.90;;;;;;4908449;29;20053;-71
2022/12/12 06:36:25;;;;;;;;;;;-5.00;99.90;;;;;;4907003;29;19932;-70
2022/12/12 06:38:52;;;;;;;;;;;-5.00;99.90;;;;;;4906803;29;19931;-72
2022/12/12 06:41:19;;;;;;;;;;;-5.10;99.90;;;;;;4908800;29;20375;-71
2022/12/12 06:43:46;;;;;;;;;;;-5.00;99.90;;;;;;4921436;29;19978;-73
2022/12/12 06:46:14;;;;;;;;;;;-5.10;99.90;;;;;;4906353;29;19931;-72
2022/12/12 06:48:41;;;;;;;;;;;-5.00;99.90;;;;;;4903247;29;19934;-72
2022/12/12 06:51:10;;;;;;;;;;;-5.00;99.90;;;;;;4905156;29;19933;-72
2022/12/12 06:53:37;;;;;;;;;;;-5.00;99.90;;;;;;4909704;29;19951;-71
2022/12/12 06:56:05;;;;;;;;;;;-5.00;99.90;;;;;;4905177;29;19943;-72
2022/12/12 06:58:32;;;;;;;;;;;-5.10;99.90;;;;;;4902775;29;20464;-71
2022/12/12 07:00:59;;;;;;;;;;;-5.10;99.90;;;;;;4904649;29;19934;-71
2022/12/12 07:03:26;;;;;;;;;;;-5.10;99.90;;;;;;4905023;29;20438;-71
2022/12/12 07:05:52;;;;;;;;;;;-5.20;99.90;;;;;;4922134;29;19978;-71
2022/12/12 07:08:21;;;;;;;;;;;-5.20;99.90;;;;;;4903924;29;19931;-70
2022/12/12 07:10:48;;;;;;;;;;;-5.20;99.90;;;;;;4903603;29;19935;-71
2022/12/12 07:13:14;;;;;;;;;;;-5.20;99.90;;;;;;4904955;29;19982;-72
2022/12/12 07:15:42;;;;;;;;;;;-5.20;99.90;;;;;;4906162;29;19931;-71
2022/12/12 07:18:08;;;;;;;;;;;-5.10;99.90;;;;;;4904065;29;19981;-72
2022/12/12 07:20:37;;;;;;;;;;;-5.10;99.90;;;;;;4904844;29;19935;-71
2022/12/12 07:23:04;;;;;;;;;;;-5.00;99.90;;;;;;4904907;29;20313;-72
2022/12/12 07:25:32;;;;;;;;;;;-5.00;99.90;;;;;;4903793;29;19934;-72
2022/12/12 07:27:59;;;;;;;;;;;-5.00;99.90;;;;;;4905210;29;19931;-70
2022/12/12 07:30:26;;;;;;;;;;;-5.00;99.90;;;;;;4912180;29;19927;-71
2022/12/12 07:32:52;;;;;;;;;;;-5.00;99.90;;;;;;4901674;29;19927;-73
2022/12/12 07:35:19;;;;;;;;;;;-4.90;99.90;;;;;;4906329;29;19951;-72
2022/12/12 07:37:46;;;;;;;;;;;-4.80;99.90;;;;;;4905557;29;19962;-73
2022/12/12 07:40:13;;;;;;;;;;;-4.90;99.90;;;;;;4905673;29;19927;-73
2022/12/12 07:42:41;;;;;;;;;;;-5.00;99.90;;;;;;4899152;29;19958;-74
2022/12/12 07:45:09;;;;;;;;;;;-5.00;99.90;;;;;;4903357;29;20287;-72
2022/12/12 07:47:36;;;;;;;;;;;-4.90;99.90;;;;;;4904486;29;19950;-73
2022/12/12 07:50:02;;;;;;;;;;;-4.90;99.90;;;;;;4911529;29;19938;-73
2022/12/12 07:52:29;;;;;;;;;;;-4.90;99.90;;;;;;4907971;29;20445;-72
2022/12/12 07:54:56;;;;;;;;;;;-4.90;99.90;;;;;;4900724;29;19927;-71
2022/12/12 07:57:23;;;;;;;;;;;-5.00;99.90;;;;;;4902069;29;19934;-70
2022/12/12 07:59:51;;;;;;;;;;;-5.00;99.90;;;;;;4903844;29;19931;-72
2022/12/12 08:02:18;;;;;;;;;;;-4.90;99.90;;;;;;4909828;29;19927;-73
2022/12/12 08:04:45;;;;;;;;;;;-4.90;99.90;;;;;;4926135;29;19927;-72
2022/12/12 08:07:12;;;;;;;;;;;-4.90;99.90;;;;;;4914714;29;19927;-72
2022/12/12 08:09:39;;;;;;;;;;;-4.80;99.90;;;;;;4909834;29;19987;-72
2022/12/12 08:12:06;;;;;;;;;;;-4.80;99.90;;;;;;4906134;29;19938;-75
2022/12/12 08:14:32;;;;;;;;;;;-4.70;99.90;;;;;;4911251;29;20375;-75
2022/12/12 08:17:00;;;;;;;;;;;-4.60;99.90;;;;;;4907397;29;19927;-71
2022/12/12 08:19:27;;;;;;;;;;;-4.60;99.90;;;;;;4906524;29;19927;-70
2022/12/12 08:21:55;;;;;;;;;;;-4.60;99.90;;;;;;4908012;29;20456;-72
2022/12/12 08:24:22;;;;;;;;;;;-4.50;99.90;;;;;;4906070;29;19928;-72
2022/12/12 08:26:49;;;;;;;;;;;-4.40;99.90;;;;;;4916203;29;19935;-72
2022/12/12 08:29:16;;;;;;;;;;;-4.40;99.90;;;;;;4907643;29;20390;-72
2022/12/12 08:31:42;;;;;;;;;;;-4.30;99.90;;;;;;4908284;29;19939;-72
2022/12/12 08:34:11;;;;;;;;;;;-4.20;99.90;;;;;;4912973;29;19928;-72
2022/12/12 08:36:38;;;;;;;;;;;-4.10;99.90;;;;;;4906623;29;19979;-73
2022/12/12 08:39:06;;;;;;;;;;;-4.10;99.90;;;;;;4914093;29;20425;-72
2022/12/12 08:41:34;;;;;;;;;;;-4.00;99.90;;;;;;4921210;29;20038;-72
2022/12/12 08:44:00;;;;;;;;;;;-3.90;99.90;;;;;;4907873;29;19979;-72
2022/12/12 08:46:27;;;;;;;;;;;-3.80;99.90;;;;;;4911522;29;20286;-72
2022/12/12 08:48:54;;;;;;;;;;;-3.70;99.90;;;;;;4907233;29;19978;-72
2022/12/12 08:51:22;;;;;;;;;;;-3.50;99.90;;;;;;4908710;29;19931;-72
2022/12/12 08:53:50;;;;;;;;;;;-3.40;99.90;;;;;;4905739;29;19927;-72
2022/12/12 08:56:17;;;;;;;;;;;-3.30;99.90;;;;;;4914314;29;19971;-73
2022/12/12 08:58:44;;;;;;;;;;;-3.30;99.90;;;;;;4905513;29;20010;-71
2022/12/12 09:01:11;;;;;;;;;;;-3.20;99.90;;;;;;4913097;29;19990;-72
2022/12/12 09:03:38;;;;;;;;;;;-3.20;99.90;;;;;;4914110;29;20008;-72
2022/12/12 09:06:05;;;;;;;;;;;-3.10;99.90;;;;;;4912612;29;20147;-72
2022/12/12 09:08:34;;;;;;;;;;;-3.00;99.90;;;;;;4903854;29;19931;-71
2022/12/12 09:11:00;;;;;;;;;;;-2.90;99.90;;;;;;4905435;29;19934;-72
2022/12/12 09:13:27;;;;;;;;;;;-2.80;99.90;;;;;;4903011;29;20300;-72
2022/12/12 09:15:54;;;;;;;;;;;-2.70;99.90;;;;;;4906320;29;20446;-71
2022/12/12 09:18:21;;;;;;;;;;;-2.60;99.90;;;;;;4910336;29;20367;-70
2022/12/12 09:20:49;;;;;;;;;;;-2.50;99.90;;;;;;4907877;29;19931;-72
2022/12/12 09:23:16;;;;;;;;;;;-2.40;99.90;;;;;;4907113;29;20037;-71
2022/12/12 09:25:44;;;;;;;;;;;-2.30;99.90;;;;;;4904667;29;19935;-72
2022/12/12 09:28:11;;;;;;;;;;;-2.20;99.90;;;;;;4912460;29;19930;-72
2022/12/12 09:30:38;;;;;;;;;;;-2.10;99.90;;;;;;4903327;29;19932;-71
2022/12/12 09:33:05;;;;;;;;;;;-1.90;99.90;;;;;;4914306;29;19931;-71
2022/12/12 09:35:32;;;;;;;;;;;-1.80;99.90;;;;;;4908923;29;19963;-71
2022/12/12 09:37:58;;;;;;;;;;;-1.70;99.90;;;;;;4909329;29;19927;-73
2022/12/12 09:40:29;;;;;;;;;;;-1.50;99.90;;;;;;4906079;29;19979;-71
2022/12/12 09:42:58;;;;;;;;;;;-1.40;99.90;;;;;;4932966;29;19931;-70
2022/12/12 09:45:25;;;;;;;;;;;-1.30;99.90;;;;;;4911710;29;19960;-73
2022/12/12 09:47:54;;;;;;;;;;;-1.20;99.90;;;;;;4923583;29;19926;-72
2022/12/12 09:50:23;;;;;;;;;;;-1.10;99.90;;;;;;4912354;29;19928;-72
2022/12/12 09:52:50;;;;;;;;;;;-1.00;99.90;;;;;;4906666;29;19927;-72
2022/12/12 09:55:26;;;;;;;;;;;-0.80;99.90;;;;;;4910079;29;20339;-71
2022/12/12 09:57:54;;;;;;;;;;;-0.70;99.90;;;;;;4911219;29;19932;-71
2022/12/12 10:00:22;;;;;;;;;;;-0.50;99.90;;;;;;4911167;29;19927;-72
2022/12/12 10:03:00;;;;;;;;;;;-0.40;99.90;;;;;;4905163;29;19931;-71
2022/12/12 10:05:32;;;;;;;;;;;-0.20;99.90;;;;;;4904738;29;20045;-72
2022/12/12 10:08:00;;;;;;;;;;;0.10;99.90;;;;;;4920750;29;19928;-72
2022/12/12 10:10:29;;;;;;;;;;;0.20;99.90;;;;;;4909921;29;19928;-72
2022/12/12 10:12:57;;;;;;;;;;;0.40;99.90;;;;;;4907820;29;20371;-71
2022/12/12 10:15:28;;;;;;;;;;;0.60;99.90;;;;;;4905657;29;19932;-71
2022/12/12 10:17:56;;;;;;;;;;;0.70;99.90;;;;;;4908287;29;20351;-71
2022/12/12 10:20:25;;;;;;;;;;;0.90;99.90;;;;;;4910434;29;19970;-72
2022/12/12 10:22:53;;;;;;;;;;;4.10;99.90;;;;;;4910784;29;20355;-72
2022/12/12 10:25:22;;;;;;;;;;;8.00;99.90;;;;;;4903591;29;19928;-72
2022/12/12 10:27:50;;;;;;;;;;;10.60;99.90;;;;;;4915779;29;19930;-73
2022/12/12 10:30:18;;;;;;;;;;;11.50;99.90;;;;;;4914159;29;20002;-74
2022/12/12 10:32:50;;;;;;;;;;;13.10;99.90;;;;;;4904436;29;19927;-72
2022/12/12 10:35:21;;;;;;;;;;;13.50;99.90;;;;;;4911210;29;19927;-70
2022/12/12 10:37:54;;;;;;;;;;;14.40;99.90;;;;;;4910479;29;19931;-73
2022/12/12 10:40:29;;;;;;;;;;;15.70;99.90;;;;;;4908900;29;20453;-71
2022/12/12 10:42:58;;;;;;;;;;;16.80;99.90;;;;;;4901222;29;19976;-71
2022/12/12 10:45:47;;;;;;;;;;;17.90;99.90;;;;;;4910465;29;20287;-70
2022/12/12 10:48:15;;;;;;;;;;;17.90;99.90;;;;;;4897645;29;19970;-72
2022/12/12 10:50:43;;;;;;;;;;;19.00;99.90;;;;;;4908081;29;20379;-71
2022/12/12 10:53:10;;;;;;;;;;;19.50;99.90;;;;;;4910634;29;19974;-71
2022/12/12 10:55:41;;;;;;;;;;;20.00;99.90;;;;;;4906855;29;20478;-72
2022/12/12 10:58:07;;;;;;;;;;;20.20;99.90;;;;;;4910304;29;20409;-71
2022/12/12 11:00:35;;;;;;;;;;;20.20;99.90;;;;;;4902893;29;19932;-72
2022/12/12 11:03:11;;;;;;;;;;;20.10;99.90;;;;;;4910584;29;19927;-69
2022/12/12 11:05:40;;;;;;;;;;;20.40;99.90;;;;;;4908030;29;19980;-71
2022/12/12 11:08:18;;;;;;;;;;;21.50;99.90;;;;;;4907740;29;19927;-72
2022/12/12 11:10:45;;;;;;;;;;;21.80;99.90;;;;;;4907428;29;20402;-71
2022/12/12 11:13:14;;;;;;;;;;;22.30;99.90;;;;;;4906934;29;19931;-72
2022/12/12 11:15:45;;;;;;;;;;;22.30;99.90;;;;;;4901705;29;19980;-71
2022/12/12 11:18:14;;;;;;;;;;;21.80;99.90;;;;;;4905287;29;20307;-72
2022/12/12 11:20:46;;;;;;;;;;;20.70;99.90;;;;;;4901882;29;20395;-70
2022/12/12 11:23:16;;;;;;;;;;;19.80;99.90;;;;;;4903020;29;19927;-71
2022/12/12 11:25:43;;;;;;;;;;;20.30;99.90;;;;;;4923767;29;19927;-70
2022/12/12 11:28:13;;;;;;;;;;;20.80;99.90;;;;;;4909281;29;19981;-73
2022/12/12 11:30:42;;;;;;;;;;;21.60;99.90;;;;;;4910485;29;19927;-72
2022/12/12 11:33:16;;;;;;;;;;;21.80;99.90;;;;;;4902399;29;19931;-71
2022/12/12 11:35:42;;;;;;;;;;;21.20;99.90;;;;;;4912952;29;19927;-71
2022/12/12 11:38:16;;;;;;;;;;;21.40;99.90;;;;;;4907728;29;19927;-72
2022/12/12 11:40:43;;;;;;;;;;;21.90;99.90;;;;;;4909623;29;20440;-71
2022/12/12 11:43:18;;;;;;;;;;;21.80;99.90;;;;;;4906765;29;19928;-70
2022/12/12 11:45:57;;;;;;;;;;;21.70;99.90;;;;;;4909110;29;19962;-71
2022/12/12 11:48:35;;;;;;;;;;;22.30;99.90;;;;;;4921078;29;20455;-69
2022/12/12 11:51:02;;;;;;;;;;;22.20;99.90;;;;;;4922733;29;19927;-71
2022/12/12 11:53:31;;;;;;;;;;;22.80;99.90;;;;;;4906773;29;20470;-71
2022/12/12 11:56:05;;;;;;;;;;;21.90;99.90;;;;;;4913875;29;19931;-69
2022/12/12 11:58:35;;;;;;;;;;;20.90;99.90;;;;;;4906194;29;19938;-71
2022/12/12 12:01:07;;;;;;;;;;;20.10;99.90;;;;;;4911044;29;19939;-72
2022/12/12 12:03:50;;;;;;;;;;;19.80;99.90;;;;;;4909839;29;19981;-71
2022/12/12 12:06:25;;;;;;;;;;;19.90;99.90;;;;;;4907740;29;19927;-72
2022/12/12 12:09:05;;;;;;;;;;;20.80;99.90;;;;;;4907828;29;19954;-71
2022/12/12 12:11:38;;;;;;;;;;;21.20;99.90;;;;;;4909413;29;19982;-72
2022/12/12 12:14:19;;;;;;;;;;;21.90;99.90;;;;;;4908956;29;20320;-71
2022/12/12 12:16:52;;;;;;;;;;;22.10;99.90;;;;;;4906781;29;20382;-71
2022/12/12 12:19:23;;;;;;;;;;;22.70;99.90;;;;;;4906954;29;19983;-72
2022/12/12 12:21:54;;;;;;;;;;;22.50;99.90;;;;;;4908212;29;19962;-71
2022/12/12 12:24:34;;;;;;;;;;;21.80;99.90;;;;;;4905611;29;20006;-72
2022/12/12 12:27:05;;;;;;;;;;;21.70;99.90;;;;;;4903585;29;19927;-73
2022/12/12 12:29:46;;;;;;;;;;;20.90;99.90;;;;;;4908948;29;19942;-71
2022/12/12 12:32:18;;;;;;;;;;;20.50;99.90;;;;;;4898857;29;20414;-71
2022/12/12 12:34:50;;;;;;;;;;;20.80;99.90;;;;;;4907001;29;19928;-72
2022/12/12 12:37:24;;;;;;;;;;;21.30;99.90;;;;;;4905928;29;19927;-73
2022/12/12 12:39:59;;;;;;;;;;;21.60;99.90;;;;;;4902329;29;19928;-69
2022/12/12 12:42:34;;;;;;;;;;;21.30;99.90;;;;;;4908501;29;19942;-72
2022/12/12 12:45:07;;;;;;;;;;;21.70;99.90;;;;;;4905293;29;19938;-72
2022/12/12 12:47:40;;;;;;;;;;;21.30;99.90;;;;;;4905483;29;19942;-73
2022/12/12 12:50:15;;;;;;;;;;;20.50;99.80;;;;;;4909049;29;19928;-72
2022/12/12 12:52:45;;;;;;;;;;;19.40;99.90;;;;;;4906798;29;20280;-71
2022/12/12 12:55:16;;;;;;;;;;;19.10;99.90;;;;;;4910844;29;19983;-73
2022/12/12 12:57:44;;;;;;;;;;;17.80;99.90;;;;;;4906919;29;19986;-70
2022/12/12 13:00:14;;;;;;;;;;;16.90;99.90;;;;;;4912563;29;20304;-70
2022/12/12 13:02:45;;;;;;;;;;;14.70;99.70;;;;;;4909115;29;20302;-71
2022/12/12 13:05:13;;;;;;;;;;;14.20;99.90;;;;;;4910980;29;20018;-70
2022/12/12 13:07:42;;;;;;;;;;;13.10;99.90;;;;;;4910430;29;19959;-70
2022/12/12 13:10:15;;;;;;;;;;;12.40;99.90;;;;;;4904473;29;20470;-71
2022/12/12 13:12:45;;;;;;;;;;;12.60;99.90;;;;;;4912329;29;19961;-69
2022/12/12 13:15:16;;;;;;;;;;;12.80;99.90;;;;;;4902735;29;19931;-71
2022/12/12 13:17:46;;;;;;;;;;;13.80;99.90;;;;;;4908252;29;20018;-73
2022/12/12 13:20:15;;;;;;;;;;;13.60;99.90;;;;;;4910340;29;19975;-72
2022/12/12 13:22:46;;;;;;;;;;;13.20;99.90;;;;;;4912117;29;20365;-71
2022/12/12 13:25:14;;;;;;;;;;;12.50;99.90;;;;;;4913446;29;19975;-71
2022/12/12 13:27:45;;;;;;;;;;;12.50;99.90;;;;;;4903464;29;19928;-71
2022/12/12 13:30:19;;;;;;;;;;;12.20;99.90;;;;;;4906947;29;19992;-72
2022/12/12 13:33:06;;;;;;;;;;;12.80;99.90;;;;;;4904294;29;19942;-70
2022/12/12 13:35:34;;;;;;;;;;;13.20;99.90;;;;;;4913114;29;19936;-70
2022/12/12 13:38:01;;;;;;;;;;;13.30;99.90;;;;;;4908163;29;20395;-70
2022/12/12 13:40:29;;;;;;;;;;;13.20;99.90;;;;;;4910825;29;19975;-71
2022/12/12 13:42:58;;;;;;;;;;;13.30;99.90;;;;;;4903085;29;20361;-71
2022/12/12 13:45:36;;;;;;;;;;;13.30;99.90;;;;;;4913429;29;19935;-71
2022/12/12 13:48:03;;;;;;;;;;;13.60;99.90;;;;;;4907100;29;19962;-72
2022/12/12 13:50:30;;;;;;;;;;;13.90;99.90;;;;;;4915477;29;19927;-69
2022/12/12 13:53:17;;;;;;;;;;;14.00;99.90;;;;;;4915526;29;19966;-71
2022/12/12 13:55:44;;;;;;;;;;;14.10;99.90;;;;;;4910238;29;19931;-71
2022/12/12 13:58:32;;;;;;;;;;;14.00;99.90;;;;;;4912840;29;19927;-70
2022/12/12 14:01:17;;;;;;;;;;;14.00;99.90;;;;;;4912498;29;19978;-70
2022/12/12 14:03:45;;;;;;;;;;;13.80;99.90;;;;;;4908784;29;19979;-71
2022/12/12 14:06:18;;;;;;;;;;;13.70;99.90;;;;;;4910976;29;19959;-71
2022/12/12 14:08:48;;;;;;;;;;;13.70;99.90;;;;;;4906271;29;19927;-71
2022/12/12 14:11:25;;;;;;;;;;;13.90;99.90;;;;;;4914220;29;19970;-71
2022/12/12 14:14:01;;;;;;;;;;;14.20;99.90;;;;;;4907734;29;19931;-69
2022/12/12 14:16:28;;;;;;;;;;;14.40;99.90;;;;;;4907433;29;19927;-71
2022/12/12 14:18:58;;;;;;;;;;;14.00;99.90;;;;;;4905623;29;20379;-70
2022/12/12 14:21:37;;;;;;;;;;;13.60;99.90;;;;;;4906603;29;19927;-70
2022/12/12 14:24:18;;;;;;;;;;;13.20;99.90;;;;;;4904763;29;19934;-70
2022/12/12 14:26:49;;;;;;;;;;;12.80;99.90;;;;;;4925090;29;19952;-72
2022/12/12 14:29:28;;;;;;;;;;;12.60;99.90;;;;;;4933826;28;20164;-70
2022/12/12 14:32:01;;;;;;;;;;;12.70;99.90;;;;;;4917539;29;20367;-70
2022/12/12 14:34:31;;;;;;;;;;;12.40;99.90;;;;;;4903021;29;19928;-71
2022/12/12 14:37:19;;;;;;;;;;;11.90;99.90;;;;;;4908620;29;19928;-72
2022/12/12 14:40:03;;;;;;;;;;;11.80;99.90;;;;;;4907763;29;19931;-71
2022/12/12 14:42:36;;;;;;;;;;;11.60;99.90;;;;;;4919752;29;20342;-72
2022/12/12 14:45:23;;;;;;;;;;;11.40;99.90;;;;;;4906980;29;20284;-71
2022/12/12 14:48:07;;;;;;;;;;;11.20;99.90;;;;;;4910780;29;19932;-71
2022/12/12 14:50:34;;;;;;;;;;;11.50;99.90;;;;;;4922634;29;19927;-71
2022/12/12 14:53:01;;;;;;;;;;;11.70;99.90;;;;;;4922682;29;19928;-71
2022/12/12 14:55:28;;;;;;;;;;;11.70;99.90;;;;;;4910483;29;19938;-71
2022/12/12 14:57:54;;;;;;;;;;;11.00;99.90;;;;;;4909150;29;20446;-70
2022/12/12 15:00:23;;;;;;;;;;;9.80;99.90;;;;;;4908923;29;19927;-68
2022/12/12 15:02:52;;;;;;;;;;;8.90;99.90;;;;;;4918591;29;20310;-70
2022/12/12 15:05:18;;;;;;;;;;;8.00;99.90;;;;;;4903903;29;19931;-71
2022/12/12 15:07:45;;;;;;;;;;;7.30;99.90;;;;;;4908065;29;19989;-71
2022/12/12 15:10:22;;;;;;;;;;;6.60;99.90;;;;;;4904293;29;19934;-68
2022/12/12 15:12:48;;;;;;;;;;;6.10;99.90;;;;;;4903049;29;19971;-70
2022/12/12 15:15:23;;;;;;;;;;;5.60;99.90;;;;;;4903696;29;19935;-71
2022/12/12 15:17:50;;;;;;;;;;;5.20;99.90;;;;;;4904808;29;19992;-69
2022/12/12 15:20:19;;;;;;;;;;;4.70;99.90;;;;;;4904117;29;19973;-70
2022/12/12 15:22:51;;;;;;;;;;;4.40;99.90;;;;;;4908624;29;20418;-71
2022/12/12 15:25:18;;;;;;;;;;;4.10;99.90;;;;;;4904902;29;19995;-70
2022/12/12 15:27:46;;;;;;;;;;;3.80;99.90;;;;;;4907606;29;20398;-70
2022/12/12 15:30:29;;;;;;;;;;;3.40;99.90;;;;;;4903271;29;19927;-70
2022/12/12 15:32:57;;;;;;;;;;;3.00;99.90;;;;;;4900575;29;19931;-69
2022/12/12 15:35:24;;;;;;;;;;;2.70;99.90;;;;;;4909926;29;19987;-69
2022/12/12 15:37:55;;;;;;;;;;;2.50;99.90;;;;;;4903643;29;19955;-69
2022/12/12 15:40:26;;;;;;;;;;;2.40;99.90;;;;;;4903619;29;19927;-69
2022/12/12 15:42:54;;;;;;;;;;;2.10;99.90;;;;;;4914374;29;19927;-70
2022/12/12 15:45:27;;;;;;;;;;;2.00;99.90;;;;;;4918422;29;19931;-70
2022/12/12 15:47:55;;;;;;;;;;;1.80;99.90;;;;;;4927219;29;19934;-70
2022/12/12 15:50:25;;;;;;;;;;;1.60;99.90;;;;;;4909094;29;19931;-70
2022/12/12 15:53:03;;;;;;;;;;;1.40;99.90;;;;;;4911593;29;19967;-70
2022/12/12 15:55:30;;;;;;;;;;;1.30;99.90;;;;;;4913849;29;19931;-69
2022/12/12 15:57:57;;;;;;;;;;;1.20;99.90;;;;;;4914499;29;19927;-70
2022/12/12 16:00:28;;;;;;;;;;;1.00;99.90;;;;;;4903681;29;19927;-70
2022/12/12 16:03:02;;;;;;;;;;;0.90;99.90;;;;;;4919129;29;20371;-71
2022/12/12 16:05:45;;;;;;;;;;;;;;;;;;;;;
2022/12/12 16:08:38;;;;;;;;;;;0.70;99.90;;;;;;4913316;29;19927;-71
2022/12/12 16:11:06;;;;;;;;;;;0.50;99.90;;;;;;4912370;29;19927;-70
2022/12/12 16:13:37;;;;;;;;;;;0.40;99.90;;;;;;4911418;29;19928;-70
2022/12/12 16:16:23;;;;;;;;;;;0.30;99.90;;;;;;4913894;29;20355;-71
2022/12/12 16:18:49;;;;;;;;;;;0.20;99.90;;;;;;4910431;29;19935;-69
2022/12/12 16:21:18;;;;;;;;;;;0.00;99.90;;;;;;4916637;29;19978;-70
2022/12/12 16:23:44;;;;;;;;;;;-0.10;99.90;;;;;;4918310;29;20355;-71
2022/12/12 16:26:11;;;;;;;;;;;-0.10;99.90;;;;;;4917434;29;19978;-70
2022/12/12 16:28:38;;;;;;;;;;;-0.20;99.90;;;;;;4914994;29;20368;-71
2022/12/12 16:31:06;;;;;;;;;;;-0.30;99.90;;;;;;4920288;29;19926;-70
2022/12/12 16:33:34;;;;;;;;;;;-0.30;99.90;;;;;;4917655;29;19927;-71
2022/12/12 16:36:02;;;;;;;;;;;-0.40;99.90;;;;;;4919327;29;19987;-70
2022/12/12 16:38:30;;;;;;;;;;;-0.50;99.90;;;;;;4916473;29;19936;-70
2022/12/12 16:40:58;;;;;;;;;;;-0.60;99.90;;;;;;4918770;29;19979;-70
2022/12/12 16:43:25;;;;;;;;;;;-0.70;99.90;;;;;;4917496;29;19990;-70
2022/12/12 16:45:54;;;;;;;;;;;-0.80;99.90;;;;;;4916987;29;19927;-70
2022/12/12 16:48:22;;;;;;;;;;;-0.90;99.90;;;;;;4912650;29;20359;-71
2022/12/12 16:50:49;;;;;;;;;;;-1.00;99.90;;;;;;4916665;29;19931;-70
2022/12/12 16:53:16;;;;;;;;;;;-1.00;99.90;;;;;;4915001;29;20414;-69
2022/12/12 16:55:45;;;;;;;;;;;-1.00;99.90;;;;;;4915783;29;19958;-70
2022/12/12 16:58:12;;;;;;;;;;;-1.10;99.90;;;;;;4912708;29;19964;-70
2022/12/12 17:00:39;;;;;;;;;;;-1.10;99.90;;;;;;4931662;29;19975;-69
2022/12/12 17:03:07;;;;;;;;;;;-1.20;99.90;;;;;;4910717;29;20410;-71
2022/12/12 17:05:34;;;;;;;;;;;-1.30;99.90;;;;;;4912004;29;19935;-70
2022/12/12 17:08:00;;;;;;;;;;;-1.30;99.90;;;;;;4912598;29;19983;-70
2022/12/12 17:10:30;;;;;;;;;;;-1.30;99.90;;;;;;4930767;29;19934;-69
2022/12/12 17:12:58;;;;;;;;;;;-1.40;99.90;;;;;;4916301;29;20410;-69
2022/12/12 17:15:26;;;;;;;;;;;-1.40;99.90;;;;;;4917012;29;19974;-70
2022/12/12 17:17:53;;;;;;;;;;;-1.40;99.90;;;;;;4927690;29;19927;-70
2022/12/12 17:20:20;;;;;;;;;;;-1.50;99.90;;;;;;4914180;29;19928;-70
2022/12/12 17:22:46;;;;;;;;;;;-1.60;99.90;;;;;;4914216;29;19939;-69
2022/12/12 17:25:13;;;;;;;;;;;-1.60;99.90;;;;;;4912820;29;19927;-71
2022/12/12 17:27:40;;;;;;;;;;;-1.70;99.90;;;;;;4912572;29;19958;-69
2022/12/12 17:30:09;;;;;;;;;;;-1.70;99.90;;;;;;4914936;29;19927;-75
2022/12/12 17:32:37;;;;;;;;;;;-1.70;99.90;;;;;;4910540;29;20439;-68
2022/12/12 17:35:04;;;;;;;;;;;-1.70;99.90;;;;;;4915681;29;19927;-69
2022/12/12 17:37:31;;;;;;;;;;;-1.70;99.90;;;;;;4915203;29;19970;-70
2022/12/12 17:39:57;;;;;;;;;;;-1.80;99.90;;;;;;4910326;29;19928;-68
2022/12/12 17:42:24;;;;;;;;;;;-1.70;99.90;;;;;;4911538;29;19984;-68
2022/12/12 17:44:52;;;;;;;;;;;-1.70;99.90;;;;;;4908759;29;20387;-68
2022/12/12 17:47:20;;;;;;;;;;;-1.70;99.90;;;;;;4909952;29;19983;-69
2022/12/12 17:49:47;;;;;;;;;;;-1.80;99.90;;;;;;4907908;29;19983;-69
2022/12/12 17:52:14;;;;;;;;;;;-1.90;99.90;;;;;;4902699;29;19928;-68
2022/12/12 17:54:41;;;;;;;;;;;-2.00;99.90;;;;;;4902517;29;20442;-70
2022/12/12 17:57:08;;;;;;;;;;;-2.00;99.90;;;;;;4903507;29;19928;-70
2022/12/12 17:59:35;;;;;;;;;;;-2.00;99.90;;;;;;4901470;29;19931;-69
2022/12/12 18:02:02;;;;;;;;;;;-2.10;99.90;;;;;;4903612;29;19960;-69
2022/12/12 18:04:31;;;;;;;;;;;-2.10;99.90;;;;;;4904935;29;19931;-69
2022/12/12 18:06:58;;;;;;;;;;;-2.20;99.90;;;;;;4912953;29;19927;-70
2022/12/12 18:09:25;;;;;;;;;;;-2.20;99.90;;;;;;4907791;29;19927;-69
2022/12/12 18:11:52;;;;;;;;;;;-2.20;99.90;;;;;;4905774;29;20022;-68
2022/12/12 18:14:19;;;;;;;;;;;-2.30;99.90;;;;;;4930942;29;20382;-69
2022/12/12 18:16:49;;;;;;;;;;;-2.30;99.90;;;;;;4901145;29;19935;-70
2022/12/12 18:19:16;;;;;;;;;;;-2.40;99.90;;;;;;4908210;29;20021;-69
2022/12/12 18:21:45;;;;;;;;;;;-2.40;99.90;;;;;;4913297;29;19927;-70
2022/12/12 18:24:11;;;;;;;;;;;-2.40;99.90;;;;;;4900628;29;19927;-70
2022/12/12 18:26:38;;;;;;;;;;;-2.40;99.90;;;;;;4907820;29;19931;-70
2022/12/12 18:29:06;;;;;;;;;;;-2.50;99.90;;;;;;4899839;29;19975;-69
2022/12/12 18:31:33;;;;;;;;;;;-2.50;99.90;;;;;;4906260;29;19928;-70
2022/12/12 18:34:00;;;;;;;;;;;-2.60;99.90;;;;;;4907613;29;19995;-70
2022/12/12 18:36:28;;;;;;;;;;;-2.60;99.90;;;;;;4906281;29;19927;-71
2022/12/12 18:38:58;;;;;;;;;;;-2.60;99.90;;;;;;4913673;29;19927;-71
2022/12/12 18:41:26;;;;;;;;;;;-2.60;99.90;;;;;;4909815;29;20506;-69
2022/12/12 18:43:54;;;;;;;;;;;-2.70;99.90;;;;;;4925807;29;20208;-69